Nizhniy Novgorod, Russia
Current Conditions -  °F | °C
As of 7:30 PM on Thursday 30 Oct 2014 (Local Time) from UWGG Reporting Station
Smoke Smoke  
Wind Chill: 38°   Ceiling: 10000
Heat Index: 41°   Visibility: 3mi
Dew Point: 25°   Wind: 4mph
Humidity: 53%   Direction: 180°S
Pressure: 30.12"   Gusts: NA
Location:  56.33°N, 44°E
Report Text: UWGG 301630Z 18002MPS 5000 FU FEW050 BKN100 05/M04 Q1020 NOSIG18090060 RMK QFE758
Loading
Personal Weather Stations






























Interactive Weather Map
Tropical Storm Tracking
New forecast layout! Learn more

10-Day Weather Forecast

Advertisements
Track Severe Weather on mobile